createdAt,value
2023-04-11T00:00:00.424Z,13.04
2023-04-11T00:02:27.484Z,12.77
2023-04-11T00:04:55.152Z,12.87
2023-04-11T00:07:22.097Z,12.65
2023-04-11T00:09:51.357Z,13.03
2023-04-11T00:12:19.805Z,13.00
2023-04-11T00:14:49.099Z,13.41
2023-04-11T00:17:17.797Z,13.21
2023-04-11T00:19:46.253Z,13.22
2023-04-11T00:22:18.024Z,12.65
2023-04-11T00:24:45.760Z,13.12
2023-04-11T00:27:12.435Z,13.14
2023-04-11T00:29:39.577Z,12.85
2023-04-11T00:32:06.944Z,12.68
2023-04-11T00:34:34.564Z,12.40
2023-04-11T00:37:01.863Z,12.24
2023-04-11T00:39:30.435Z,12.77
2023-04-11T00:42:08.624Z,12.32
2023-04-11T00:44:36.665Z,12.44
2023-04-11T00:47:06.334Z,12.77
2023-04-11T00:49:33.380Z,12.78
2023-04-11T00:52:00.506Z,12.64
2023-04-11T00:54:30.587Z,13.04
2023-04-11T00:56:59.779Z,13.05
2023-04-11T00:59:30.915Z,13.34
2023-04-11T01:01:58.576Z,12.51
2023-04-11T01:04:26.261Z,13.36
2023-04-11T01:06:59.735Z,12.46
2023-04-11T01:09:27.894Z,12.69
2023-04-11T01:11:55.167Z,12.19
2023-04-11T01:14:22.964Z,12.95
2023-04-11T01:16:50.854Z,12.45
2023-04-11T01:19:20.021Z,12.92
2023-04-11T01:21:48.314Z,12.69
2023-04-11T01:24:15.113Z,11.98
2023-04-11T01:26:42.302Z,11.93
2023-04-11T01:29:09.205Z,12.45
2023-04-11T01:31:36.732Z,12.81
2023-04-11T01:34:04.611Z,12.31
2023-04-11T01:36:32.394Z,12.55
2023-04-11T01:38:59.610Z,12.53
2023-04-11T01:41:29.730Z,12.55
2023-04-11T01:43:57.084Z,12.25
2023-04-11T01:46:24.852Z,12.45
2023-04-11T01:48:54.195Z,12.59
2023-04-11T01:51:21.344Z,12.66
2023-04-11T01:53:48.124Z,12.28
2023-04-11T01:56:15.296Z,12.16
2023-04-11T01:58:42.218Z,12.76
2023-04-11T02:01:09.092Z,12.47
2023-04-11T02:03:37.090Z,12.98
2023-04-11T02:06:04.568Z,12.45
2023-04-11T02:08:31.552Z,12.01
2023-04-11T02:10:58.484Z,12.01
2023-04-11T02:13:25.307Z,12.04
2023-04-11T02:15:52.472Z,11.72
2023-04-11T02:18:19.507Z,13.01
2023-04-11T02:20:46.300Z,13.22
2023-04-11T02:23:14.264Z,11.87
2023-04-11T02:25:41.427Z,12.43
2023-04-11T02:28:08.448Z,11.87
2023-04-11T02:30:35.452Z,12.49
2023-04-11T02:33:03.283Z,12.25
2023-04-11T02:35:30.224Z,12.92
2023-04-11T02:38:00.148Z,12.21
2023-04-11T02:40:26.956Z,12.06
2023-04-11T02:42:53.901Z,12.07
2023-04-11T02:45:21.522Z,12.73
2023-04-11T02:47:48.552Z,13.13
2023-04-11T02:50:16.161Z,12.87
2023-04-11T02:52:49.604Z,12.17
2023-04-11T02:55:22.953Z,12.04
2023-04-11T02:57:50.836Z,12.61
2023-04-11T03:00:20.226Z,11.93
2023-04-11T03:02:56.914Z,11.92
2023-04-11T03:05:25.104Z,11.77
2023-04-11T03:07:53.892Z,12.19
2023-04-11T03:10:20.779Z,11.86
2023-04-11T03:12:47.906Z,12.30
2023-04-11T03:15:15.683Z,11.74
2023-04-11T03:17:42.723Z,11.72
2023-04-11T03:20:14.048Z,11.48
2023-04-11T03:22:46.850Z,12.30
2023-04-11T03:25:14.880Z,12.24
2023-04-11T03:27:42.958Z,11.93
2023-04-11T03:30:11.674Z,11.86
2023-04-11T03:32:42.081Z,11.43
2023-04-11T03:35:09.858Z,11.59
2023-04-11T03:37:39.984Z,11.89
2023-04-11T03:40:08.562Z,12.05
2023-04-11T03:42:38.263Z,11.93
2023-04-11T03:45:08.187Z,11.60
2023-04-11T03:47:35.649Z,11.82
2023-04-11T03:50:04.097Z,11.56
2023-04-11T03:52:37.778Z,11.24
2023-04-11T03:55:10.059Z,11.51
2023-04-11T03:57:36.844Z,11.54
2023-04-11T04:00:06.317Z,12.49
2023-04-11T04:02:42.304Z,11.63
2023-04-11T04:05:13.416Z,11.86
2023-04-11T04:07:40.987Z,11.61
2023-04-11T04:10:24.336Z,11.59
2023-04-11T04:12:53.648Z,11.14
2023-04-11T04:15:24.006Z,11.45
2023-04-11T04:17:52.258Z,11.53
2023-04-11T04:20:26.956Z,11.37
2023-04-11T04:22:58.113Z,11.10
2023-04-11T04:25:34.826Z,11.61
2023-04-11T04:28:01.639Z,11.27
2023-04-11T04:30:38.255Z,11.82
2023-04-11T04:33:12.451Z,11.83
2023-04-11T04:35:45.150Z,11.60
2023-04-11T04:38:18.051Z,11.46
2023-04-11T04:40:54.908Z,11.87
2023-04-11T04:43:24.561Z,11.56
2023-04-11T04:46:06.167Z,10.98
2023-04-11T04:48:40.564Z,11.46
2023-04-11T04:51:08.234Z,11.52
2023-04-11T04:53:39.044Z,11.77
2023-04-11T04:56:08.635Z,12.66
2023-04-11T04:58:39.436Z,11.52
2023-04-11T05:01:11.483Z,11.96
2023-04-11T05:03:39.511Z,11.84
2023-04-11T05:06:11.596Z,12.23
2023-04-11T05:08:39.832Z,12.03
2023-04-11T05:11:09.247Z,11.54
2023-04-11T05:13:37.174Z,12.11
2023-04-11T05:16:05.534Z,11.42
2023-04-11T05:18:32.592Z,12.04
2023-04-11T05:20:59.390Z,11.71
2023-04-11T05:23:33.413Z,11.16
2023-04-11T05:26:02.339Z,11.45
2023-04-11T05:28:31.677Z,11.91
2023-04-11T05:30:59.267Z,11.77
2023-04-11T05:33:27.791Z,12.78
2023-04-11T05:35:56.128Z,11.89
2023-04-11T05:38:23.860Z,11.80
2023-04-11T05:40:50.725Z,11.24
2023-04-11T05:43:19.398Z,11.60
2023-04-11T05:45:48.262Z,12.21
2023-04-11T05:48:22.959Z,14.17
2023-04-11T05:50:54.116Z,13.34
2023-04-11T05:53:21.384Z,14.14
2023-04-11T05:55:48.130Z,14.18
2023-04-11T05:58:15.028Z,15.45
2023-04-11T06:00:42.099Z,15.22
2023-04-11T06:03:09.620Z,16.24
2023-04-11T06:05:36.575Z,17.50
2023-04-11T06:08:05.146Z,17.19
2023-04-11T06:10:32.101Z,18.47
2023-04-11T06:12:59.178Z,18.14
2023-04-11T06:15:27.149Z,18.74
2023-04-11T06:17:54.579Z,17.00
2023-04-11T06:20:22.360Z,17.49
2023-04-11T06:22:51.619Z,16.55
2023-04-11T06:25:20.055Z,17.48
2023-04-11T06:27:47.399Z,14.78
2023-04-11T06:30:14.670Z,15.38
2023-04-11T06:32:41.597Z,14.85
2023-04-11T06:35:09.149Z,15.69
2023-04-11T06:37:36.043Z,15.83
2023-04-11T06:40:05.675Z,17.44
2023-04-11T06:42:32.751Z,15.30
2023-04-11T06:44:59.558Z,16.55
2023-04-11T06:47:26.805Z,19.46
2023-04-11T06:49:53.540Z,20.10
2023-04-11T06:52:20.275Z,18.90
2023-04-11T06:54:48.178Z,18.37
2023-04-11T06:57:15.016Z,17.25
2023-04-11T06:59:41.747Z,18.65
2023-04-11T07:02:08.576Z,19.08
2023-04-11T07:04:35.484Z,17.35
2023-04-11T07:07:02.284Z,16.30
2023-04-11T07:09:29.009Z,17.28
2023-04-11T07:11:56.334Z,17.89
2023-04-11T07:14:23.130Z,16.78
2023-04-11T07:16:49.924Z,17.95
2023-04-11T07:19:16.568Z,16.53
2023-04-11T07:21:43.627Z,17.69
2023-04-11T07:24:11.168Z,17.47
2023-04-11T07:26:38.989Z,17.50
2023-04-11T07:29:09.113Z,18.25
2023-04-11T07:31:37.479Z,17.14
2023-04-11T07:34:04.272Z,18.00
2023-04-11T07:36:31.958Z,15.84
2023-04-11T07:39:00.150Z,15.38
2023-04-11T07:41:27.251Z,15.41
2023-04-11T07:43:54.161Z,16.39
2023-04-11T07:46:21.061Z,15.91
2023-04-11T07:48:47.723Z,15.13
2023-04-11T07:51:15.114Z,14.93
2023-04-11T07:53:42.095Z,16.27
2023-04-11T07:56:09.349Z,16.12
2023-04-11T07:58:36.469Z,16.43
2023-04-11T08:01:04.076Z,16.46
2023-04-11T08:03:31.625Z,16.89
2023-04-11T08:05:58.863Z,16.77
2023-04-11T08:08:26.354Z,17.44
2023-04-11T08:10:53.052Z,16.89
2023-04-11T08:13:27.350Z,17.13
2023-04-11T08:15:57.801Z,17.89
2023-04-11T08:18:25.552Z,17.34
2023-04-11T08:20:52.952Z,16.16
2023-04-11T08:23:21.622Z,15.68
2023-04-11T08:25:48.364Z,15.82
2023-04-11T08:28:17.038Z,16.68
2023-04-11T08:30:43.840Z,17.89
2023-04-11T08:33:12.535Z,17.66
2023-04-11T08:35:43.095Z,17.62
2023-04-11T08:38:09.892Z,15.86
2023-04-11T08:40:36.806Z,16.68
2023-04-11T08:43:03.979Z,16.91
2023-04-11T08:45:31.058Z,16.11
2023-04-11T08:47:58.288Z,16.65
2023-04-11T08:50:26.265Z,16.87
2023-04-11T08:52:53.202Z,17.22
2023-04-11T08:55:20.881Z,17.75
2023-04-11T08:57:47.787Z,17.33
2023-04-11T09:00:15.394Z,17.54
2023-04-11T09:03:03.353Z,16.94
2023-04-11T09:05:33.589Z,17.18
2023-04-11T09:08:04.638Z,16.67
2023-04-11T09:10:31.569Z,16.57
2023-04-11T09:12:59.046Z,16.16
2023-04-11T09:15:30.289Z,16.51
2023-04-11T09:18:00.284Z,16.56
2023-04-11T09:20:30.424Z,16.06
2023-04-11T09:22:59.117Z,17.40
2023-04-11T09:25:25.935Z,16.32
2023-04-11T09:28:08.291Z,16.17
2023-04-11T09:30:35.304Z,17.34
2023-04-11T09:33:24.175Z,16.04
2023-04-11T09:35:53.547Z,16.52
2023-04-11T09:38:35.155Z,16.92
2023-04-11T09:41:03.885Z,16.99
2023-04-11T09:43:50.879Z,16.22
2023-04-11T09:46:21.080Z,16.24
2023-04-11T09:48:53.092Z,16.81
2023-04-11T09:51:35.241Z,16.14
2023-04-11T09:54:04.898Z,16.79
2023-04-11T09:56:35.045Z,16.69
2023-04-11T09:59:02.827Z,16.49
2023-04-11T10:01:29.552Z,15.97
2023-04-11T10:03:57.745Z,16.13
2023-04-11T10:06:35.070Z,16.47
2023-04-11T10:09:10.963Z,16.99
2023-04-11T10:11:41.409Z,17.35
2023-04-11T10:14:08.177Z,17.52
2023-04-11T10:16:35.263Z,17.01
2023-04-11T10:19:02.014Z,17.74
2023-04-11T10:21:35.152Z,17.32
2023-04-11T10:24:20.315Z,16.50
2023-04-11T10:26:57.639Z,17.08
2023-04-11T10:29:33.031Z,17.16
2023-04-11T10:32:19.245Z,17.14
2023-04-11T10:35:10.681Z,16.97
2023-04-11T10:37:37.807Z,17.08
2023-04-11T10:40:11.185Z,16.82
2023-04-11T10:42:43.004Z,17.04
2023-04-11T10:45:18.939Z,17.57
2023-04-11T10:47:52.132Z,16.44
2023-04-11T10:50:42.219Z,16.14
2023-04-11T10:53:14.431Z,15.49
2023-04-11T10:55:50.742Z,16.07
2023-04-11T10:58:22.375Z,16.18
2023-04-11T11:00:55.794Z,16.20
2023-04-11T11:03:30.834Z,16.73
2023-04-11T11:06:04.056Z,16.03
2023-04-11T11:08:33.458Z,15.54
2023-04-11T11:11:07.034Z,15.59
2023-04-11T11:13:41.681Z,15.94
2023-04-11T11:16:11.104Z,16.01
2023-04-11T11:18:38.845Z,15.68
2023-04-11T11:21:09.306Z,16.12
2023-04-11T11:23:47.766Z,15.39
2023-04-11T11:26:14.549Z,16.38
2023-04-11T11:28:48.730Z,15.83
2023-04-11T11:31:15.674Z,16.12
2023-04-11T11:33:42.773Z,15.92
2023-04-11T11:36:10.607Z,16.52
2023-04-11T11:38:37.593Z,16.19
2023-04-11T11:41:04.705Z,16.42
2023-04-11T11:43:36.298Z,16.48
2023-04-11T11:46:08.815Z,17.15
2023-04-11T11:48:36.277Z,16.88
2023-04-11T11:51:03.224Z,16.89
2023-04-11T11:53:30.122Z,16.11
2023-04-11T11:55:56.893Z,16.01
2023-04-11T11:58:24.090Z,16.51
2023-04-11T12:00:51.718Z,16.61
2023-04-11T12:03:22.554Z,17.44
2023-04-11T12:05:51.583Z,16.96
2023-04-11T12:08:20.656Z,16.56
2023-04-11T12:10:48.127Z,17.16
2023-04-11T12:13:19.190Z,16.81
2023-04-11T12:15:57.276Z,16.83
2023-04-11T12:18:25.852Z,16.67
2023-04-11T12:20:52.776Z,17.02
2023-04-11T12:23:20.375Z,16.73
2023-04-11T12:25:47.670Z,16.65
2023-04-11T12:28:14.686Z,17.13
2023-04-11T12:30:41.701Z,17.14
2023-04-11T12:33:08.761Z,17.09
2023-04-11T12:35:35.624Z,18.00
2023-04-11T12:38:02.413Z,17.56
2023-04-11T12:40:29.830Z,17.43
2023-04-11T12:42:57.471Z,17.30
2023-04-11T12:45:24.778Z,16.79
2023-04-11T12:47:51.663Z,17.50
2023-04-11T12:50:18.536Z,16.92
2023-04-11T12:52:45.537Z,16.98
2023-04-11T12:55:13.177Z,16.37
2023-04-11T12:57:41.091Z,16.72
2023-04-11T13:00:08.969Z,16.25
2023-04-11T13:02:43.789Z,17.45
2023-04-11T13:05:14.679Z,17.00
2023-04-11T13:07:42.692Z,17.32
2023-04-11T13:10:10.260Z,17.30
2023-04-11T13:12:41.602Z,16.32
2023-04-11T13:15:09.866Z,17.39
2023-04-11T13:17:36.805Z,17.47
2023-04-11T13:20:13.334Z,17.33
2023-04-11T13:22:41.415Z,17.06
2023-04-11T13:25:08.852Z,17.11
2023-04-11T13:27:36.400Z,16.85
2023-04-11T13:30:04.987Z,17.29
2023-04-11T13:32:32.630Z,17.25
2023-04-11T13:34:59.557Z,16.57
2023-04-11T13:37:26.831Z,16.49
2023-04-11T13:39:53.650Z,16.86
2023-04-11T13:42:21.849Z,16.41
2023-04-11T13:44:48.520Z,17.24
2023-04-11T13:47:15.536Z,16.58
2023-04-11T13:49:42.369Z,16.32
2023-04-11T13:52:09.181Z,16.54
2023-04-11T13:54:38.150Z,16.42
2023-04-11T13:57:07.800Z,16.82
2023-04-11T13:59:34.833Z,16.36
2023-04-11T14:02:02.822Z,16.52
2023-04-11T14:04:29.913Z,16.74
2023-04-11T14:06:57.223Z,16.95
2023-04-11T14:09:24.213Z,17.83
2023-04-11T14:11:51.282Z,18.04
2023-04-11T14:14:18.138Z,17.42
2023-04-11T14:16:45.177Z,16.78
2023-04-11T14:19:11.918Z,16.63
2023-04-11T14:21:38.795Z,16.97
2023-04-11T14:24:05.911Z,17.68
2023-04-11T14:26:32.620Z,16.88
2023-04-11T14:28:59.538Z,16.71
2023-04-11T14:31:26.562Z,17.05
2023-04-11T14:33:53.797Z,16.83
2023-04-11T14:36:20.610Z,16.62
2023-04-11T14:38:47.408Z,16.64
2023-04-11T14:41:14.178Z,17.31
2023-04-11T14:43:41.274Z,17.41
2023-04-11T14:46:08.141Z,17.55
2023-04-11T14:48:35.088Z,17.14
2023-04-11T14:51:05.470Z,17.40
2023-04-11T14:53:32.509Z,17.77
2023-04-11T14:55:59.367Z,17.84
2023-04-11T14:58:26.361Z,17.48
2023-04-11T15:00:53.211Z,17.88
2023-04-11T15:03:20.296Z,17.65
2023-04-11T15:05:52.897Z,17.11
2023-04-11T15:08:19.745Z,16.99
2023-04-11T15:10:46.460Z,17.32
2023-04-11T15:13:13.227Z,17.16
2023-04-11T15:15:40.360Z,17.28
2023-04-11T15:18:21.977Z,17.18
2023-04-11T15:20:49.410Z,17.36
2023-04-11T15:23:16.637Z,16.93
2023-04-11T15:25:43.672Z,17.15
2023-04-11T15:28:11.154Z,16.66
2023-04-11T15:30:47.026Z,16.53
2023-04-11T15:33:14.199Z,17.06
2023-04-11T15:35:44.519Z,17.03
2023-04-11T15:38:12.761Z,17.53
2023-04-11T15:40:40.127Z,17.13
2023-04-11T15:43:07.602Z,17.26
2023-04-11T15:45:38.480Z,17.02
2023-04-11T15:48:05.768Z,17.28
2023-04-11T15:50:32.843Z,17.11
2023-04-11T15:53:00.387Z,17.40
2023-04-11T15:55:27.399Z,17.09
2023-04-11T15:58:01.311Z,17.13
2023-04-11T16:00:37.271Z,16.94
2023-04-11T16:03:04.945Z,17.48
2023-04-11T16:05:32.544Z,17.24
2023-04-11T16:07:59.483Z,17.77
2023-04-11T16:10:26.833Z,17.85
2023-04-11T16:12:53.631Z,17.55
2023-04-11T16:15:20.356Z,17.28
2023-04-11T16:17:47.389Z,17.13
2023-04-11T16:20:18.840Z,17.34
2023-04-11T16:22:46.978Z,17.67
2023-04-11T16:25:21.202Z,18.05
2023-04-11T16:27:48.625Z,16.97
2023-04-11T16:30:16.763Z,17.22
2023-04-11T16:32:43.890Z,16.44
2023-04-11T16:35:10.654Z,16.43
2023-04-11T16:37:37.541Z,16.92
2023-04-11T16:40:10.693Z,17.52
2023-04-11T16:42:40.691Z,16.63
2023-04-11T16:45:08.853Z,16.37
2023-04-11T16:47:36.079Z,17.06
2023-04-11T16:50:03.962Z,16.63
2023-04-11T16:52:31.161Z,16.98
2023-04-11T16:54:58.551Z,17.24
2023-04-11T16:57:25.770Z,16.49
2023-04-11T16:59:52.606Z,15.46
2023-04-11T17:02:19.407Z,15.42
2023-04-11T17:04:46.681Z,14.62
2023-04-11T17:07:13.804Z,15.11
2023-04-11T17:09:41.531Z,15.04
2023-04-11T17:12:08.208Z,15.24
2023-04-11T17:14:36.446Z,15.43
2023-04-11T17:17:03.642Z,15.52
2023-04-11T17:19:34.054Z,15.45
2023-04-11T17:22:01.836Z,15.67
2023-04-11T17:24:29.389Z,15.93
2023-04-11T17:26:57.141Z,15.38
2023-04-11T17:29:23.970Z,15.18
2023-04-11T17:31:52.027Z,15.14
2023-04-11T17:34:18.849Z,14.93
2023-04-11T17:36:46.061Z,15.27
2023-04-11T17:39:17.588Z,14.90
2023-04-11T17:41:45.732Z,14.73
2023-04-11T17:44:13.057Z,14.89
2023-04-11T17:46:39.905Z,15.34
2023-04-11T17:49:06.619Z,15.33
2023-04-11T17:51:33.933Z,15.75
2023-04-11T17:54:00.799Z,15.74
2023-04-11T17:56:27.539Z,15.60
2023-04-11T17:58:56.029Z,15.38
2023-04-11T18:01:23.820Z,15.77
2023-04-11T18:03:50.956Z,15.89
2023-04-11T18:06:18.240Z,15.94
2023-04-11T18:08:50.528Z,16.03
2023-04-11T18:11:18.350Z,15.75
2023-04-11T18:13:46.420Z,16.20
2023-04-11T18:16:15.778Z,15.93
2023-04-11T18:18:42.685Z,15.65
2023-04-11T18:21:09.899Z,16.16
2023-04-11T18:23:36.779Z,16.17
2023-04-11T18:26:03.921Z,15.95
2023-04-11T18:28:30.790Z,15.86
2023-04-11T18:30:57.685Z,15.75
2023-04-11T18:33:25.743Z,15.79
2023-04-11T18:35:52.582Z,15.80
2023-04-11T18:38:19.496Z,15.97
2023-04-11T18:40:46.373Z,16.22
2023-04-11T18:43:14.063Z,16.04
2023-04-11T18:45:42.224Z,16.13
2023-04-11T18:48:10.368Z,15.82
2023-04-11T18:50:39.036Z,16.16
2023-04-11T18:53:10.660Z,15.45
2023-04-11T18:55:40.344Z,15.75
2023-04-11T18:58:09.615Z,15.80
2023-04-11T19:00:39.784Z,15.40
2023-04-11T19:03:07.167Z,15.29
2023-04-11T19:05:34.716Z,15.53
2023-04-11T19:08:02.875Z,14.91
2023-04-11T19:10:30.136Z,15.52
2023-04-11T19:12:56.970Z,15.20
2023-04-11T19:15:24.082Z,15.26
2023-04-11T19:17:51.681Z,15.71
2023-04-11T19:20:19.275Z,15.78
2023-04-11T19:22:46.567Z,15.54
2023-04-11T19:25:13.393Z,15.39
2023-04-11T19:27:41.990Z,15.36
2023-04-11T19:30:11.232Z,15.52
2023-04-11T19:32:38.802Z,15.20
2023-04-11T19:35:08.886Z,15.07
2023-04-11T19:37:36.642Z,15.36
2023-04-11T19:40:07.540Z,15.91
2023-04-11T19:42:37.051Z,14.76
2023-04-11T19:45:05.008Z,14.89
2023-04-11T19:47:32.790Z,15.12
2023-04-11T19:50:01.325Z,15.34
2023-04-11T19:52:28.683Z,15.60
2023-04-11T19:54:56.716Z,14.93
2023-04-11T19:57:25.621Z,14.92
2023-04-11T19:59:52.388Z,15.39
2023-04-11T20:02:19.446Z,14.93
2023-04-11T20:04:46.667Z,15.45
2023-04-11T20:07:13.552Z,15.16
2023-04-11T20:09:40.363Z,14.43
2023-04-11T20:12:07.436Z,14.45
2023-04-11T20:14:34.507Z,14.89
2023-04-11T20:17:05.334Z,14.86
2023-04-11T20:19:33.353Z,15.37
2023-04-11T20:22:03.673Z,15.11
2023-04-11T20:24:30.806Z,15.04
2023-04-11T20:26:58.162Z,14.69
2023-04-11T20:29:30.924Z,14.90
2023-04-11T20:31:58.415Z,14.81
2023-04-11T20:34:25.477Z,14.46
2023-04-11T20:36:52.657Z,14.76
2023-04-11T20:39:19.624Z,14.09
2023-04-11T20:41:47.353Z,13.88
2023-04-11T20:44:19.222Z,14.64
2023-04-11T20:46:46.365Z,14.59
2023-04-11T20:49:13.349Z,14.46
2023-04-11T20:51:41.254Z,14.76
2023-04-11T20:54:11.123Z,14.71
2023-04-11T20:56:38.322Z,14.24
2023-04-11T20:59:05.314Z,14.56
2023-04-11T21:01:33.033Z,14.46
2023-04-11T21:04:03.693Z,14.06
2023-04-11T21:06:34.468Z,13.95
2023-04-11T21:09:05.944Z,13.69
2023-04-11T21:11:33.746Z,13.66
2023-04-11T21:14:00.659Z,14.13
2023-04-11T21:16:28.303Z,14.06
2023-04-11T21:18:55.199Z,13.94
2023-04-11T21:21:21.972Z,13.90
2023-04-11T21:23:48.829Z,13.97
2023-04-11T21:26:15.626Z,13.29
2023-04-11T21:28:44.530Z,14.02
2023-04-11T21:31:15.672Z,13.85
2023-04-11T21:34:05.883Z,13.80
2023-04-11T21:36:34.577Z,13.73
2023-04-11T21:39:01.796Z,13.62
2023-04-11T21:41:34.864Z,13.92
2023-04-11T21:44:02.901Z,13.11
2023-04-11T21:46:30.501Z,13.09
2023-04-11T21:48:59.369Z,13.06
2023-04-11T21:51:27.626Z,13.65
2023-04-11T21:53:59.277Z,13.51
2023-04-11T21:56:26.130Z,13.51
2023-04-11T21:58:52.947Z,13.54
2023-04-11T22:01:21.666Z,13.35
2023-04-11T22:03:56.984Z,13.29
2023-04-11T22:06:26.679Z,12.95
2023-04-11T22:08:54.305Z,13.07
2023-04-11T22:11:24.444Z,12.95
2023-04-11T22:13:52.946Z,13.23
2023-04-11T22:16:30.433Z,13.71
2023-04-11T22:19:07.872Z,12.79
2023-04-11T22:21:34.842Z,12.98
2023-04-11T22:24:02.406Z,13.17
2023-04-11T22:26:43.989Z,13.41
2023-04-11T22:29:12.417Z,13.24
2023-04-11T22:31:44.182Z,13.05
2023-04-11T22:34:18.927Z,12.88
2023-04-11T22:36:47.649Z,13.08
2023-04-11T22:39:14.651Z,13.02
2023-04-11T22:41:44.757Z,13.12
2023-04-11T22:44:14.614Z,12.83
2023-04-11T22:47:09.004Z,13.20
2023-04-11T22:49:42.411Z,12.44
2023-04-11T22:52:14.252Z,12.45
2023-04-11T22:54:43.087Z,12.73
2023-04-11T22:57:16.064Z,12.53
2023-04-11T22:59:43.005Z,12.52
2023-04-11T23:02:10.220Z,12.43
2023-04-11T23:04:37.210Z,12.46
2023-04-11T23:07:05.459Z,12.45
2023-04-11T23:09:32.330Z,12.32
2023-04-11T23:11:58.995Z,12.30
2023-04-11T23:14:31.324Z,12.20
2023-04-11T23:16:58.587Z,12.48
2023-04-11T23:19:25.644Z,12.32
2023-04-11T23:21:52.531Z,12.44
2023-04-11T23:24:19.392Z,12.52
2023-04-11T23:26:46.535Z,12.73
2023-04-11T23:29:13.403Z,12.35
2023-04-11T23:31:40.674Z,12.14
2023-04-11T23:34:07.449Z,11.98
2023-04-11T23:36:34.604Z,12.60
2023-04-11T23:39:02.119Z,12.29
2023-04-11T23:41:30.333Z,12.26
2023-04-11T23:43:57.415Z,12.24
2023-04-11T23:46:24.737Z,12.43
2023-04-11T23:48:52.969Z,12.35
2023-04-11T23:51:19.703Z,12.36
2023-04-11T23:53:46.473Z,12.95
2023-04-11T23:56:14.009Z,12.42
2023-04-11T23:58:41.010Z,12.49
